Time;durP1;ratioP1;P1;durP2;ratioP2;P2;SDS_P1;SDS_P2;PMS_P1;PMS_P2;Temp;Humidity;BMP_temperature;BMP_pressure;BME280_temperature;BME280_humidity;BME280_pressure;Samples;Min_cycle;Max_cycle;Signal;HPM_P1;HPM_P2
2022/10/30 00:00:16;;;;;;;;;;;14.20;99.60;;;;;;5009132;28;1082;-71
2022/10/30 00:02:46;;;;;;;;;;;14.20;99.70;;;;;;5003060;28;1107;-71
2022/10/30 00:05:14;;;;;;;;;;;14.20;99.60;;;;;;5007589;28;1072;-70
2022/10/30 00:07:41;;;;;;;;;;;14.40;99.80;;;;;;5005071;28;1021;-70
2022/10/30 00:10:09;;;;;;;;;;;14.10;99.90;;;;;;5009781;28;1520;-70
2022/10/30 00:12:38;;;;;;;;;;;14.10;99.70;;;;;;5009866;28;1331;-70
2022/10/30 00:15:07;;;;;;;;;;;14.10;99.80;;;;;;5008914;28;1097;-71
2022/10/30 00:17:35;;;;;;;;;;;14.20;99.90;;;;;;5009227;28;1913;-70
2022/10/30 00:20:02;;;;;;;;;;;14.20;99.90;;;;;;5003067;28;1567;-71
2022/10/30 00:22:30;;;;;;;;;;;14.20;99.90;;;;;;5010033;28;1642;-70
2022/10/30 00:24:57;;;;;;;;;;;14.20;99.70;;;;;;5005267;28;1144;-71
2022/10/30 00:27:25;;;;;;;;;;;14.20;99.80;;;;;;5005734;28;1014;-71
2022/10/30 00:29:54;;;;;;;;;;;14.20;99.80;;;;;;5014440;28;1078;-69
2022/10/30 00:32:21;;;;;;;;;;;14.20;99.90;;;;;;5015341;28;1220;-69
2022/10/30 00:34:49;;;;;;;;;;;14.20;99.90;;;;;;5010177;28;1140;-70
2022/10/30 00:37:19;;;;;;;;;;;14.20;99.90;;;;;;5009062;28;1918;-69
2022/10/30 00:39:47;;;;;;;;;;;14.20;99.90;;;;;;5006319;28;1032;-70
2022/10/30 00:42:15;;;;;;;;;;;14.10;99.80;;;;;;5014694;28;1306;-70
2022/10/30 00:44:45;;;;;;;;;;;14.20;99.90;;;;;;5008088;28;1021;-69
2022/10/30 00:47:16;;;;;;;;;;;14.20;99.90;;;;;;5012250;28;1014;-69
2022/10/30 00:49:48;;;;;;;;;;;14.20;99.90;;;;;;5014276;28;1010;-69
2022/10/30 00:52:16;;;;;;;;;;;14.10;99.90;;;;;;5017658;28;1216;-70
2022/10/30 00:54:44;;;;;;;;;;;14.10;99.90;;;;;;5014778;28;1081;-71
2022/10/30 00:57:11;;;;;;;;;;;14.10;99.90;;;;;;5006990;28;1985;-71
2022/10/30 00:59:39;;;;;;;;;;;14.10;99.90;;;;;;5009666;28;1502;-70
2022/10/30 01:02:07;;;;;;;;;;;14.10;99.90;;;;;;5009063;28;1338;-71
2022/10/30 01:04:37;;;;;;;;;;;14.10;99.90;;;;;;5011942;28;1139;-71
2022/10/30 01:07:08;;;;;;;;;;;14.10;99.90;;;;;;5009564;28;1640;-71
2022/10/30 01:09:36;;;;;;;;;;;14.00;99.90;;;;;;5015005;28;1024;-70
2022/10/30 01:12:04;;;;;;;;;;;14.00;99.90;;;;;;5032185;28;1246;-70
2022/10/30 01:14:33;;;;;;;;;;;14.00;99.90;;;;;;5009228;28;1062;-69
2022/10/30 01:17:12;;;;;;;;;;;14.00;99.90;;;;;;5006304;28;1895;-68
2022/10/30 01:19:44;;;;;;;;;;;14.00;99.90;;;;;;5004611;28;1075;-68
2022/10/30 01:22:17;;;;;;;;;;;14.00;99.90;;;;;;5005489;28;1269;-70
2022/10/30 01:24:49;;;;;;;;;;;14.00;99.90;;;;;;5013191;28;1655;-69
2022/10/30 01:27:27;;;;;;;;;;;13.90;99.90;;;;;;5008520;28;1926;-69
2022/10/30 01:30:02;;;;;;;;;;;14.00;99.90;;;;;;5009552;28;1073;-69
2022/10/30 01:32:37;;;;;;;;;;;14.00;99.90;;;;;;5008937;28;1359;-68
2022/10/30 01:35:10;;;;;;;;;;;14.00;99.90;;;;;;5006591;28;1152;-67
2022/10/30 01:37:39;;;;;;;;;;;14.00;99.90;;;;;;5007019;28;2029;-68
2022/10/30 01:40:09;;;;;;;;;;;14.00;99.90;;;;;;5008123;28;1029;-68
2022/10/30 01:42:43;;;;;;;;;;;14.00;99.90;;;;;;5008468;28;1334;-68
2022/10/30 01:45:13;;;;;;;;;;;14.10;99.90;;;;;;5000787;28;732;-68
2022/10/30 01:47:47;;;;;;;;;;;14.10;99.90;;;;;;5002973;28;1164;-69
2022/10/30 01:50:23;;;;;;;;;;;14.10;99.90;;;;;;5001195;28;2801;-69
2022/10/30 01:52:55;;;;;;;;;;;14.00;99.90;;;;;;5007534;28;1041;-69
2022/10/30 01:55:28;;;;;;;;;;;14.00;99.90;;;;;;5007121;28;1069;-71
2022/10/30 01:57:59;;;;;;;;;;;14.00;99.90;;;;;;5006335;28;1907;-71
2022/10/30 02:00:27;;;;;;;;;;;14.00;99.90;;;;;;5007876;28;1338;-71
2022/10/30 02:02:54;;;;;;;;;;;14.00;99.90;;;;;;5011672;28;981;-71
2022/10/30 02:05:30;;;;;;;;;;;14.00;99.90;;;;;;5003484;28;1044;-70
2022/10/30 02:07:57;;;;;;;;;;;14.00;99.90;;;;;;5006665;28;1009;-71
2022/10/30 02:10:26;;;;;;;;;;;13.90;99.90;;;;;;5012957;28;1241;-70
2022/10/30 02:12:53;;;;;;;;;;;13.90;99.90;;;;;;5010992;28;825;-72
2022/10/30 02:18:07;;;;;;;;;;;13.90;99.90;;;;;;5767514;22;1699;-69
2022/10/30 02:20:37;;;;;;;;;;;13.90;99.90;;;;;;5021798;28;1268;-68
2022/10/30 02:23:05;;;;;;;;;;;13.90;99.90;;;;;;5003432;28;1047;-70
2022/10/30 02:25:34;;;;;;;;;;;13.80;99.90;;;;;;5003052;28;1057;-70
2022/10/30 02:28:01;;;;;;;;;;;13.80;99.90;;;;;;5003114;28;1050;-70
2022/10/30 02:30:29;;;;;;;;;;;13.70;99.90;;;;;;5005429;28;1730;-70
2022/10/30 02:32:56;;;;;;;;;;;13.60;99.90;;;;;;5003178;28;1658;-70
2022/10/30 02:35:25;;;;;;;;;;;13.70;99.90;;;;;;4997549;28;961;-69
2022/10/30 02:37:53;;;;;;;;;;;13.60;99.90;;;;;;5003693;28;1922;-70
2022/10/30 02:40:22;;;;;;;;;;;13.60;99.90;;;;;;5005171;28;1078;-69
2022/10/30 02:42:51;;;;;;;;;;;13.60;99.90;;;;;;5005476;28;1069;-74
2022/10/30 02:45:19;;;;;;;;;;;13.60;99.90;;;;;;5008609;28;1880;-67
2022/10/30 02:47:47;;;;;;;;;;;13.60;99.90;;;;;;5003897;28;1196;-69
2022/10/30 02:50:15;;;;;;;;;;;13.60;99.90;;;;;;5002334;28;1085;-67
2022/10/30 02:52:42;;;;;;;;;;;13.60;99.90;;;;;;5000727;28;1286;-68
2022/10/30 02:55:11;;;;;;;;;;;13.60;99.90;;;;;;5004193;28;1078;-67
2022/10/30 02:57:39;;;;;;;;;;;13.50;99.80;;;;;;4995086;28;1993;-66
2022/10/30 03:00:07;;;;;;;;;;;13.50;99.90;;;;;;5005316;28;1215;-67
2022/10/30 03:02:34;;;;;;;;;;;13.50;99.90;;;;;;5002502;28;1216;-65
2022/10/30 03:05:02;;;;;;;;;;;13.40;99.80;;;;;;5005726;28;1110;-67
2022/10/30 03:07:30;;;;;;;;;;;13.40;99.80;;;;;;4994681;28;1168;-69
2022/10/30 03:09:57;;;;;;;;;;;13.30;99.90;;;;;;5002170;28;1026;-68
2022/10/30 03:12:26;;;;;;;;;;;13.30;99.90;;;;;;5003896;28;1225;-65
2022/10/30 03:14:54;;;;;;;;;;;13.40;99.90;;;;;;5003532;28;1031;-69
2022/10/30 03:17:21;;;;;;;;;;;13.30;99.70;;;;;;5020930;28;1965;-68
2022/10/30 03:19:50;;;;;;;;;;;13.30;99.80;;;;;;5017707;28;1093;-69
2022/10/30 03:22:17;;;;;;;;;;;13.30;99.80;;;;;;5010814;28;1393;-69
2022/10/30 03:24:45;;;;;;;;;;;13.20;99.90;;;;;;5005908;28;1014;-69
2022/10/30 03:27:13;;;;;;;;;;;13.20;99.90;;;;;;4998603;28;1090;-69
2022/10/30 03:29:42;;;;;;;;;;;13.20;99.90;;;;;;5001019;28;957;-68
2022/10/30 03:32:10;;;;;;;;;;;13.20;99.90;;;;;;5008201;28;1277;-69
2022/10/30 03:34:38;;;;;;;;;;;13.20;99.70;;;;;;5004033;28;1058;-69
2022/10/30 03:37:05;;;;;;;;;;;13.10;99.70;;;;;;4998563;28;998;-70
2022/10/30 03:39:33;;;;;;;;;;;13.10;99.80;;;;;;5000763;28;1989;-67
2022/10/30 03:42:01;;;;;;;;;;;13.10;99.70;;;;;;5006532;28;1360;-71
2022/10/30 03:44:28;;;;;;;;;;;13.00;99.50;;;;;;5004508;28;1101;-70
2022/10/30 03:46:58;;;;;;;;;;;13.00;99.70;;;;;;5001173;28;1097;-68
2022/10/30 03:49:25;;;;;;;;;;;13.00;99.60;;;;;;4998424;28;1164;-70
2022/10/30 03:51:53;;;;;;;;;;;13.00;99.70;;;;;;4998717;28;1955;-68
2022/10/30 03:54:20;;;;;;;;;;;13.00;99.70;;;;;;5001687;28;1086;-69
2022/10/30 03:56:48;;;;;;;;;;;12.90;99.50;;;;;;4994185;28;1097;-67
2022/10/30 03:59:16;;;;;;;;;;;12.90;99.50;;;;;;4993996;28;2019;-67
2022/10/30 04:01:43;;;;;;;;;;;12.90;99.60;;;;;;4997654;28;1197;-69
2022/10/30 04:04:12;;;;;;;;;;;12.90;99.70;;;;;;4998086;28;1569;-69
2022/10/30 04:06:40;;;;;;;;;;;12.90;99.80;;;;;;5002194;28;1057;-69
2022/10/30 04:09:08;;;;;;;;;;;12.90;99.70;;;;;;5010451;28;1101;-71
2022/10/30 04:11:35;;;;;;;;;;;12.80;99.70;;;;;;5002102;28;1975;-71
2022/10/30 04:14:03;;;;;;;;;;;12.80;99.80;;;;;;5009120;28;1955;-71
2022/10/30 04:16:31;;;;;;;;;;;12.80;99.80;;;;;;5006465;28;1116;-73
2022/10/30 04:18:58;;;;;;;;;;;12.80;99.70;;;;;;5007290;28;1918;-72
2022/10/30 04:21:27;;;;;;;;;;;12.80;99.90;;;;;;5010555;28;1807;-71
2022/10/30 04:23:55;;;;;;;;;;;12.80;99.90;;;;;;5007670;28;1008;-71
2022/10/30 04:26:23;;;;;;;;;;;12.80;99.80;;;;;;5005817;28;1302;-69
2022/10/30 04:28:50;;;;;;;;;;;12.80;99.80;;;;;;5000194;28;2014;-69
2022/10/30 04:31:18;;;;;;;;;;;12.80;99.90;;;;;;4997466;28;1351;-68
2022/10/30 04:33:46;;;;;;;;;;;12.80;99.80;;;;;;4996628;28;1036;-69
2022/10/30 04:36:13;;;;;;;;;;;12.80;99.50;;;;;;5004152;28;1014;-68
2022/10/30 04:38:42;;;;;;;;;;;12.80;99.80;;;;;;5002921;28;1903;-67
2022/10/30 04:41:10;;;;;;;;;;;12.80;99.70;;;;;;5012195;28;1283;-68
2022/10/30 04:43:38;;;;;;;;;;;12.70;99.50;;;;;;4998432;28;2010;-69
2022/10/30 04:46:05;;;;;;;;;;;12.70;99.60;;;;;;5001121;28;1481;-68
2022/10/30 04:48:35;;;;;;;;;;;12.70;99.40;;;;;;4999501;28;1097;-68
2022/10/30 04:51:02;;;;;;;;;;;12.70;99.40;;;;;;5004911;28;1201;-68
2022/10/30 04:53:30;;;;;;;;;;;12.70;99.50;;;;;;5002401;28;1096;-68
2022/10/30 04:55:59;;;;;;;;;;;12.70;99.50;;;;;;4995809;28;1080;-68
2022/10/30 04:58:26;;;;;;;;;;;12.70;99.60;;;;;;4995450;28;1911;-68
2022/10/30 05:00:54;;;;;;;;;;;12.70;99.70;;;;;;4991172;28;1386;-68
2022/10/30 05:03:29;;;;;;;;;;;12.70;99.90;;;;;;5002286;28;1026;-68
2022/10/30 05:05:57;;;;;;;;;;;12.60;99.50;;;;;;4998757;28;1021;-68
2022/10/30 05:08:25;;;;;;;;;;;12.80;99.60;;;;;;5003255;28;962;-68
2022/10/30 05:10:53;;;;;;;;;;;12.80;99.70;;;;;;5005787;28;1355;-68
2022/10/30 05:13:22;;;;;;;;;;;12.80;99.60;;;;;;5001383;28;1005;-68
2022/10/30 05:15:50;;;;;;;;;;;12.80;99.40;;;;;;5002149;28;1044;-68
2022/10/30 05:18:18;;;;;;;;;;;12.80;99.40;;;;;;4990895;28;2054;-63
2022/10/30 05:20:46;;;;;;;;;;;12.80;99.50;;;;;;5004813;28;1210;-63
2022/10/30 05:23:14;;;;;;;;;;;12.60;99.60;;;;;;4997378;28;1069;-62
2022/10/30 05:25:41;;;;;;;;;;;12.50;99.90;;;;;;5019131;28;1088;-62
2022/10/30 05:28:09;;;;;;;;;;;12.50;99.90;;;;;;5005821;28;1053;-61
2022/10/30 05:30:38;;;;;;;;;;;12.60;99.90;;;;;;4993940;28;1363;-64
2022/10/30 05:33:09;;;;;;;;;;;12.50;99.90;;;;;;5007272;28;1053;-64
2022/10/30 05:35:37;;;;;;;;;;;12.50;99.90;;;;;;5000533;28;1010;-62
2022/10/30 05:38:06;;;;;;;;;;;12.50;99.90;;;;;;5001573;28;1051;-63
2022/10/30 05:40:34;;;;;;;;;;;12.50;99.90;;;;;;5003495;28;1911;-63
2022/10/30 05:43:02;;;;;;;;;;;12.10;99.90;;;;;;5001690;28;1158;-64
2022/10/30 05:45:29;;;;;;;;;;;12.50;99.90;;;;;;5000817;28;1168;-64
2022/10/30 05:47:59;;;;;;;;;;;12.40;99.90;;;;;;5006779;28;1154;-61
2022/10/30 05:50:28;;;;;;;;;;;12.40;99.90;;;;;;5003027;28;1355;-65
2022/10/30 05:52:56;;;;;;;;;;;12.30;99.90;;;;;;5008819;28;1014;-64
2022/10/30 05:55:24;;;;;;;;;;;12.50;99.90;;;;;;5002667;28;1187;-64
2022/10/30 05:57:55;;;;;;;;;;;12.30;99.90;;;;;;5000112;28;1073;-64
2022/10/30 06:00:23;;;;;;;;;;;12.30;99.90;;;;;;5006401;28;1943;-65
2022/10/30 06:02:51;;;;;;;;;;;12.30;99.90;;;;;;5012685;28;989;-65
2022/10/30 06:05:20;;;;;;;;;;;12.30;99.90;;;;;;5011875;28;1034;-65
2022/10/30 06:07:48;;;;;;;;;;;12.30;99.90;;;;;;5006407;28;1049;-63
2022/10/30 06:10:15;;;;;;;;;;;12.20;99.90;;;;;;5008765;28;1109;-63
2022/10/30 06:12:43;;;;;;;;;;;12.20;99.90;;;;;;5008546;28;1134;-62
2022/10/30 06:15:10;;;;;;;;;;;12.20;99.90;;;;;;5004206;28;997;-64
2022/10/30 06:17:38;;;;;;;;;;;12.20;99.90;;;;;;4998135;28;1161;-65
2022/10/30 06:20:06;;;;;;;;;;;12.20;99.90;;;;;;5002802;28;1910;-63
2022/10/30 06:22:35;;;;;;;;;;;12.20;99.90;;;;;;5005500;28;1348;-63
2022/10/30 06:25:03;;;;;;;;;;;12.20;99.90;;;;;;5012783;28;1060;-63
2022/10/30 06:27:33;;;;;;;;;;;12.20;99.90;;;;;;5004577;28;1018;-62
2022/10/30 06:30:01;;;;;;;;;;;12.10;99.90;;;;;;5003534;28;1021;-63
2022/10/30 06:32:29;;;;;;;;;;;12.00;99.90;;;;;;5008233;28;1805;-62
2022/10/30 06:34:56;;;;;;;;;;;12.10;99.90;;;;;;5001415;28;1082;-63
2022/10/30 06:37:24;;;;;;;;;;;12.10;99.90;;;;;;5000292;28;1093;-62
2022/10/30 06:39:53;;;;;;;;;;;12.20;99.90;;;;;;5000230;28;1987;-64
2022/10/30 06:42:21;;;;;;;;;;;12.10;99.90;;;;;;5009978;28;1276;-63
2022/10/30 06:44:48;;;;;;;;;;;12.10;99.90;;;;;;4998456;28;1156;-62
2022/10/30 06:47:16;;;;;;;;;;;12.10;99.90;;;;;;5000582;28;1230;-63
2022/10/30 06:49:43;;;;;;;;;;;12.10;99.90;;;;;;5000988;28;1065;-63
2022/10/30 06:52:11;;;;;;;;;;;12.10;99.90;;;;;;5001638;28;1321;-62
2022/10/30 06:54:39;;;;;;;;;;;12.20;99.90;;;;;;4994516;28;1117;-62
2022/10/30 06:57:07;;;;;;;;;;;12.20;99.90;;;;;;4998282;28;1057;-63
2022/10/30 06:59:35;;;;;;;;;;;12.30;99.90;;;;;;5004111;28;1981;-66
2022/10/30 07:02:03;;;;;;;;;;;12.20;99.90;;;;;;5003959;28;1197;-63
2022/10/30 07:04:35;;;;;;;;;;;12.30;99.90;;;;;;5004967;28;1002;-63
2022/10/30 07:07:03;;;;;;;;;;;12.30;99.90;;;;;;5004879;28;1101;-62
2022/10/30 07:09:31;;;;;;;;;;;12.40;99.90;;;;;;5006337;28;1163;-62
2022/10/30 07:11:58;;;;;;;;;;;12.30;99.90;;;;;;5006840;28;1306;-64
2022/10/30 07:14:34;;;;;;;;;;;12.30;99.90;;;;;;5005647;28;1082;-64
2022/10/30 07:17:02;;;;;;;;;;;12.50;99.90;;;;;;5003218;28;1077;-65
2022/10/30 07:19:30;;;;;;;;;;;12.40;99.90;;;;;;5000084;28;1906;-70
2022/10/30 07:22:02;;;;;;;;;;;12.50;99.90;;;;;;5001090;28;1956;-69
2022/10/30 07:24:30;;;;;;;;;;;12.60;99.90;;;;;;5003578;28;1103;-69
2022/10/30 07:26:57;;;;;;;;;;;12.70;99.90;;;;;;5010768;28;1030;-69
2022/10/30 07:29:25;;;;;;;;;;;12.70;99.80;;;;;;5003392;28;1928;-70
2022/10/30 07:31:54;;;;;;;;;;;12.90;99.90;;;;;;5010164;28;1222;-70
2022/10/30 07:34:30;;;;;;;;;;;12.70;99.70;;;;;;5008566;28;1065;-70
2022/10/30 07:36:57;;;;;;;;;;;12.80;99.90;;;;;;5000475;28;2130;-70
2022/10/30 07:39:25;;;;;;;;;;;12.80;99.90;;;;;;5003062;28;1459;-70
2022/10/30 07:41:53;;;;;;;;;;;12.90;99.90;;;;;;5009021;28;1922;-71
2022/10/30 07:44:20;;;;;;;;;;;12.90;99.80;;;;;;5005038;28;1044;-70
2022/10/30 07:46:48;;;;;;;;;;;12.90;99.90;;;;;;5000141;28;1884;-72
2022/10/30 07:49:18;;;;;;;;;;;13.00;99.90;;;;;;4994928;28;1033;-70
2022/10/30 07:51:45;;;;;;;;;;;13.00;99.90;;;;;;4997625;28;1298;-70
2022/10/30 07:54:13;;;;;;;;;;;13.10;99.90;;;;;;4999813;28;1010;-70
2022/10/30 07:56:41;;;;;;;;;;;13.20;99.90;;;;;;5002053;28;1227;-70
2022/10/30 07:59:08;;;;;;;;;;;13.30;99.90;;;;;;5002868;28;1085;-69
2022/10/30 08:01:36;;;;;;;;;;;13.40;99.90;;;;;;5006162;28;1918;-70
2022/10/30 08:04:04;;;;;;;;;;;13.50;99.90;;;;;;5007192;28;1117;-69
2022/10/30 08:06:33;;;;;;;;;;;13.60;99.90;;;;;;5003830;28;970;-75
2022/10/30 08:09:00;;;;;;;;;;;13.70;99.90;;;;;;4998764;28;1971;-69
2022/10/30 08:11:28;;;;;;;;;;;13.80;99.90;;;;;;4998656;28;1321;-69
2022/10/30 08:13:55;;;;;;;;;;;13.90;99.90;;;;;;4999848;28;1060;-68
2022/10/30 08:16:23;;;;;;;;;;;13.90;99.90;;;;;;5001257;28;1305;-68
2022/10/30 08:18:51;;;;;;;;;;;14.00;99.90;;;;;;4996935;28;1412;-68
2022/10/30 08:21:18;;;;;;;;;;;14.10;99.90;;;;;;4998533;28;1951;-68
2022/10/30 08:23:47;;;;;;;;;;;14.10;99.90;;;;;;4997446;28;2118;-71
2022/10/30 08:26:15;;;;;;;;;;;14.20;99.90;;;;;;5000534;28;1090;-68
2022/10/30 08:28:42;;;;;;;;;;;14.20;99.90;;;;;;4999703;28;1172;-68
2022/10/30 08:31:10;;;;;;;;;;;14.30;99.90;;;;;;5007641;28;1236;-68
2022/10/30 08:33:38;;;;;;;;;;;14.30;99.90;;;;;;4994902;28;1949;-69
2022/10/30 08:36:07;;;;;;;;;;;14.30;99.90;;;;;;5002600;28;1031;-68
2022/10/30 08:38:34;;;;;;;;;;;14.30;99.90;;;;;;5009442;28;977;-68
2022/10/30 08:41:03;;;;;;;;;;;14.40;99.90;;;;;;5001686;28;1914;-69
2022/10/30 08:43:31;;;;;;;;;;;14.40;99.90;;;;;;5006277;28;997;-70
2022/10/30 08:45:59;;;;;;;;;;;14.40;99.90;;;;;;5001421;28;1407;-69
2022/10/30 08:48:26;;;;;;;;;;;14.40;99.90;;;;;;5002929;28;994;-64
2022/10/30 08:50:57;;;;;;;;;;;14.30;99.90;;;;;;4998622;28;1217;-65
2022/10/30 08:53:25;;;;;;;;;;;14.40;99.90;;;;;;5002959;28;2042;-65
2022/10/30 08:55:52;;;;;;;;;;;14.00;99.90;;;;;;5004541;28;2110;-65
2022/10/30 08:58:21;;;;;;;;;;;14.50;99.90;;;;;;5005306;28;2026;-64
2022/10/30 09:00:49;;;;;;;;;;;14.50;99.90;;;;;;4986090;28;4556;-63
2022/10/30 09:03:17;;;;;;;;;;;14.60;99.90;;;;;;5009911;28;3314;-63
2022/10/30 09:05:45;;;;;;;;;;;14.70;99.90;;;;;;5011854;28;1094;-63
2022/10/30 09:08:12;;;;;;;;;;;14.80;99.90;;;;;;5016081;28;1037;-64
2022/10/30 09:10:40;;;;;;;;;;;14.90;99.90;;;;;;5012764;28;1860;-64
2022/10/30 09:13:10;;;;;;;;;;;15.10;99.90;;;;;;5002301;28;1723;-63
2022/10/30 09:15:39;;;;;;;;;;;15.10;99.90;;;;;;5011860;28;4568;-62
2022/10/30 09:18:07;;;;;;;;;;;15.20;99.80;;;;;;5024883;28;2110;-64
2022/10/30 09:20:34;;;;;;;;;;;15.30;99.70;;;;;;5018814;28;1910;-62
2022/10/30 09:23:02;;;;;;;;;;;15.30;99.20;;;;;;5017235;28;1804;-63
2022/10/30 09:25:30;;;;;;;;;;;15.50;99.10;;;;;;5021148;28;1743;-64
2022/10/30 09:27:58;;;;;;;;;;;15.50;99.00;;;;;;5017585;28;990;-62
2022/10/30 09:30:26;;;;;;;;;;;15.60;99.00;;;;;;5015729;28;1600;-64
2022/10/30 09:32:55;;;;;;;;;;;15.70;98.80;;;;;;5026108;28;1006;-62
2022/10/30 09:35:24;;;;;;;;;;;15.90;98.60;;;;;;4983394;28;4583;-63
2022/10/30 09:37:52;;;;;;;;;;;16.00;98.30;;;;;;5019846;28;3908;-63
2022/10/30 09:40:22;;;;;;;;;;;16.10;97.60;;;;;;5026755;28;1933;-63
2022/10/30 09:42:50;;;;;;;;;;;16.20;97.20;;;;;;5029369;28;1891;-65
2022/10/30 09:45:33;;;;;;;;;;;16.20;97.40;;;;;;5026041;28;1025;-64
2022/10/30 09:48:11;;;;;;;;;;;16.30;97.80;;;;;;4987024;28;1106;-64
2022/10/30 09:50:40;;;;;;;;;;;16.40;97.40;;;;;;5018436;28;1248;-63
2022/10/30 09:53:12;;;;;;;;;;;16.50;96.40;;;;;;5019923;28;1037;-65
2022/10/30 09:55:42;;;;;;;;;;;16.60;96.40;;;;;;5023114;28;1891;-64
2022/10/30 09:58:17;;;;;;;;;;;16.70;96.00;;;;;;5012271;28;1911;-66
2022/10/30 10:00:48;;;;;;;;;;;16.80;96.00;;;;;;5021415;28;1198;-64
2022/10/30 10:03:23;;;;;;;;;;;16.80;95.70;;;;;;5024207;28;1910;-64
2022/10/30 10:05:51;;;;;;;;;;;16.90;95.50;;;;;;5021640;28;1977;-71
2022/10/30 10:08:22;;;;;;;;;;;16.90;95.10;;;;;;5025851;28;1157;-71
2022/10/30 10:10:51;;;;;;;;;;;16.90;95.00;;;;;;5018212;28;1335;-73
2022/10/30 10:13:29;;;;;;;;;;;16.90;95.20;;;;;;5018251;28;1088;-70
2022/10/30 10:15:59;;;;;;;;;;;16.90;95.40;;;;;;5013560;28;1820;-70
2022/10/30 10:18:29;;;;;;;;;;;17.00;95.20;;;;;;5018903;28;1946;-70
2022/10/30 10:20:59;;;;;;;;;;;17.00;95.30;;;;;;5010299;28;1934;-70
2022/10/30 10:23:29;;;;;;;;;;;17.20;94.70;;;;;;5022863;28;1910;-69
2022/10/30 10:25:58;;;;;;;;;;;17.50;94.30;;;;;;5026311;28;1089;-70
2022/10/30 10:28:47;;;;;;;;;;;17.50;93.90;;;;;;5015432;28;1962;-70
2022/10/30 10:31:20;;;;;;;;;;;17.40;94.30;;;;;;5017648;28;1755;-70
2022/10/30 10:33:54;;;;;;;;;;;17.60;94.20;;;;;;5026363;28;1160;-70
2022/10/30 10:36:30;;;;;;;;;;;17.60;94.40;;;;;;5028449;28;1807;-70
2022/10/30 10:39:06;;;;;;;;;;;17.60;94.60;;;;;;5025738;28;2139;-70
2022/10/30 10:41:51;;;;;;;;;;;17.60;94.50;;;;;;5032364;28;2046;-71
2022/10/30 10:44:25;;;;;;;;;;;17.60;94.20;;;;;;5032023;28;1934;-70
2022/10/30 10:47:00;;;;;;;;;;;17.60;94.40;;;;;;5028671;28;1752;-72
2022/10/30 10:49:43;;;;;;;;;;;17.70;94.40;;;;;;5030340;28;1985;-72
2022/10/30 10:52:14;;;;;;;;;;;17.70;94.00;;;;;;5022949;28;1332;-70
2022/10/30 10:54:43;;;;;;;;;;;17.90;93.80;;;;;;5021020;28;1875;-71
2022/10/30 10:57:15;;;;;;;;;;;18.00;93.70;;;;;;5027298;28;1697;-74
2022/10/30 10:59:46;;;;;;;;;;;18.00;93.70;;;;;;5017643;28;1950;-70
2022/10/30 11:02:24;;;;;;;;;;;18.10;93.20;;;;;;5023137;28;2017;-69
2022/10/30 11:04:55;;;;;;;;;;;18.10;93.30;;;;;;5021439;28;1061;-70
2022/10/30 11:07:24;;;;;;;;;;;18.20;93.30;;;;;;5024332;28;1819;-70
2022/10/30 11:09:53;;;;;;;;;;;18.10;93.50;;;;;;5015300;28;1449;-70
2022/10/30 11:12:22;;;;;;;;;;;18.10;93.30;;;;;;5021033;28;1919;-70
2022/10/30 11:14:50;;;;;;;;;;;18.20;93.30;;;;;;5020848;28;1930;-70
2022/10/30 11:17:21;;;;;;;;;;;18.30;93.40;;;;;;5018181;28;1982;-70
2022/10/30 11:19:50;;;;;;;;;;;18.30;93.60;;;;;;5021031;28;1857;-70
2022/10/30 11:22:22;;;;;;;;;;;18.30;93.10;;;;;;5016646;28;1926;-71
2022/10/30 11:24:50;;;;;;;;;;;18.40;93.10;;;;;;5011230;28;1942;-70
2022/10/30 11:27:23;;;;;;;;;;;18.40;93.00;;;;;;5027852;28;1937;-69
2022/10/30 11:29:52;;;;;;;;;;;18.20;92.70;;;;;;5025961;28;1159;-73
2022/10/30 11:32:21;;;;;;;;;;;18.50;92.70;;;;;;5018422;28;1966;-71
2022/10/30 11:35:00;;;;;;;;;;;18.60;92.80;;;;;;5018614;28;1938;-69
2022/10/30 11:37:33;;;;;;;;;;;18.60;92.80;;;;;;5018690;28;1965;-69
2022/10/30 11:40:06;;;;;;;;;;;18.70;92.70;;;;;;5016320;28;1387;-69
2022/10/30 11:42:34;;;;;;;;;;;18.70;92.60;;;;;;5024129;28;1985;-68
2022/10/30 11:45:02;;;;;;;;;;;18.70;92.40;;;;;;5016120;28;1959;-69
2022/10/30 11:47:32;;;;;;;;;;;18.80;92.70;;;;;;5018925;28;1951;-69
2022/10/30 11:50:06;;;;;;;;;;;18.80;92.70;;;;;;5019025;28;1847;-72
2022/10/30 11:52:38;;;;;;;;;;;18.90;92.40;;;;;;5020770;28;1949;-71
2022/10/30 11:55:10;;;;;;;;;;;19.10;91.80;;;;;;5023877;28;978;-72
2022/10/30 11:57:41;;;;;;;;;;;19.10;92.10;;;;;;5020646;28;1085;-70
2022/10/30 12:00:14;;;;;;;;;;;19.00;92.00;;;;;;5020700;28;1160;-71
2022/10/30 12:02:43;;;;;;;;;;;19.10;91.90;;;;;;5019100;28;1977;-70
2022/10/30 12:05:35;;;;;;;;;;;19.00;92.00;;;;;;5014015;28;1949;-69
2022/10/30 12:08:20;;;;;;;;;;;19.00;92.50;;;;;;5004120;28;1170;-71
2022/10/30 12:10:58;;;;;;;;;;;19.00;92.20;;;;;;5024321;28;1210;-70
2022/10/30 12:13:26;;;;;;;;;;;19.10;92.30;;;;;;5023100;28;1500;-70
2022/10/30 12:16:05;;;;;;;;;;;19.30;92.10;;;;;;5018917;28;970;-70
2022/10/30 12:18:33;;;;;;;;;;;19.10;92.10;;;;;;5016085;28;1958;-68
2022/10/30 12:21:01;;;;;;;;;;;19.10;91.90;;;;;;5021852;28;1856;-70
2022/10/30 12:23:29;;;;;;;;;;;19.10;91.80;;;;;;5025006;28;1987;-69
2022/10/30 12:25:59;;;;;;;;;;;19.10;91.60;;;;;;5020352;28;1152;-70
2022/10/30 12:28:28;;;;;;;;;;;19.20;91.60;;;;;;5021647;28;1169;-69
2022/10/30 12:30:57;;;;;;;;;;;19.20;91.80;;;;;;5012607;28;1602;-68
2022/10/30 12:33:27;;;;;;;;;;;19.50;91.40;;;;;;5014955;28;1871;-69
2022/10/30 12:35:56;;;;;;;;;;;19.70;91.10;;;;;;5019024;28;1900;-69
2022/10/30 12:38:27;;;;;;;;;;;19.70;91.10;;;;;;5014725;28;1937;-69
2022/10/30 12:41:04;;;;;;;;;;;19.60;91.50;;;;;;5014435;28;1752;-70
2022/10/30 12:43:34;;;;;;;;;;;19.50;91.20;;;;;;5023206;28;1992;-68
2022/10/30 12:46:07;;;;;;;;;;;19.40;91.50;;;;;;5020022;28;2010;-69
2022/10/30 12:48:37;;;;;;;;;;;19.20;91.30;;;;;;5025714;28;974;-72
2022/10/30 12:51:10;;;;;;;;;;;19.30;91.50;;;;;;5018330;28;2154;-71
2022/10/30 12:53:43;;;;;;;;;;;19.30;91.40;;;;;;5022353;28;2014;-70
2022/10/30 12:56:15;;;;;;;;;;;19.30;91.40;;;;;;5017678;28;1969;-69
2022/10/30 12:58:44;;;;;;;;;;;19.30;91.90;;;;;;5017760;28;1054;-70
2022/10/30 13:01:16;;;;;;;;;;;19.30;92.00;;;;;;5018947;28;1878;-70
2022/10/30 13:03:50;;;;;;;;;;;19.30;91.90;;;;;;5016553;28;2025;-70
2022/10/30 13:06:20;;;;;;;;;;;19.50;91.70;;;;;;5017243;28;1929;-70
2022/10/30 13:08:53;;;;;;;;;;;19.40;91.70;;;;;;5018216;28;1874;-70
2022/10/30 13:11:27;;;;;;;;;;;19.40;91.80;;;;;;5012106;28;1273;-70
2022/10/30 13:13:55;;;;;;;;;;;19.30;92.00;;;;;;5026063;28;1090;-71
2022/10/30 13:16:25;;;;;;;;;;;19.20;92.20;;;;;;5017624;28;1085;-71
2022/10/30 13:18:55;;;;;;;;;;;19.30;92.10;;;;;;5017206;28;1079;-70
2022/10/30 13:21:25;;;;;;;;;;;19.20;92.50;;;;;;5022258;28;1345;-71
2022/10/30 13:23:55;;;;;;;;;;;19.20;92.20;;;;;;5022982;28;1993;-72
2022/10/30 13:26:29;;;;;;;;;;;19.20;92.00;;;;;;5030872;28;1097;-71
2022/10/30 13:29:01;;;;;;;;;;;19.20;92.30;;;;;;5021565;28;1641;-71
2022/10/30 13:31:32;;;;;;;;;;;19.20;92.20;;;;;;5019436;28;1835;-70
2022/10/30 13:34:02;;;;;;;;;;;19.20;92.00;;;;;;5022263;28;1934;-73
2022/10/30 13:36:33;;;;;;;;;;;19.30;92.20;;;;;;5021922;28;1946;-73
2022/10/30 13:39:03;;;;;;;;;;;19.30;92.00;;;;;;5018902;28;1489;-72
2022/10/30 13:41:38;;;;;;;;;;;19.40;92.10;;;;;;5021829;28;1219;-72
2022/10/30 13:44:12;;;;;;;;;;;19.40;92.10;;;;;;4998838;28;4201;-70
2022/10/30 13:46:49;;;;;;;;;;;19.30;92.00;;;;;;4999481;28;3020;-73
2022/10/30 13:49:25;;;;;;;;;;;19.50;91.90;;;;;;5007957;28;1920;-71
2022/10/30 13:51:55;;;;;;;;;;;19.50;91.60;;;;;;5000897;28;1940;-72
2022/10/30 13:54:25;;;;;;;;;;;19.50;91.70;;;;;;4996790;28;4861;-70
2022/10/30 13:56:55;;;;;;;;;;;19.40;91.60;;;;;;5018016;28;3906;-70
2022/10/30 13:59:32;;;;;;;;;;;19.50;91.50;;;;;;5021411;28;1080;-72
2022/10/30 14:02:03;;;;;;;;;;;19.40;91.50;;;;;;5027126;28;1264;-72
2022/10/30 14:04:36;;;;;;;;;;;19.30;91.80;;;;;;5029628;28;1910;-71
2022/10/30 14:07:15;;;;;;;;;;;18.90;91.90;;;;;;5019210;28;1105;-70
2022/10/30 14:09:49;;;;;;;;;;;19.10;92.30;;;;;;5023197;28;1016;-71
2022/10/30 14:12:35;;;;;;;;;;;19.00;92.50;;;;;;5024710;28;1339;-70
2022/10/30 14:15:05;;;;;;;;;;;19.00;92.60;;;;;;5028464;28;982;-70
2022/10/30 14:17:33;;;;;;;;;;;18.90;92.70;;;;;;5035315;28;1025;-70
2022/10/30 14:20:22;;;;;;;;;;;18.90;93.00;;;;;;5021909;28;1367;-70
2022/10/30 14:23:06;;;;;;;;;;;18.80;93.10;;;;;;5030566;28;1073;-70
2022/10/30 14:25:34;;;;;;;;;;;18.80;93.10;;;;;;5026652;28;1985;-71
2022/10/30 14:28:02;;;;;;;;;;;18.80;93.20;;;;;;5026644;28;2034;-71
2022/10/30 14:30:33;;;;;;;;;;;18.70;93.20;;;;;;5023991;28;1284;-71
2022/10/30 14:33:01;;;;;;;;;;;18.70;93.40;;;;;;5020903;28;1085;-71
2022/10/30 14:35:33;;;;;;;;;;;18.60;93.40;;;;;;5023264;28;1024;-71
2022/10/30 14:38:24;;;;;;;;;;;18.60;93.30;;;;;;5021940;28;1065;-71
2022/10/30 14:41:04;;;;;;;;;;;18.60;93.40;;;;;;5020076;28;1348;-71
2022/10/30 14:43:43;;;;;;;;;;;18.60;93.20;;;;;;5026457;28;1902;-73
2022/10/30 14:46:18;;;;;;;;;;;18.50;93.30;;;;;;5022610;28;1097;-70
2022/10/30 14:48:49;;;;;;;;;;;18.50;93.30;;;;;;5024783;28;1223;-71